sensor_id;sensor_type;location;lat;lon;timestamp;temperature;humidity
1680;DHT22;838;51.794;12.258;2023-05-10T00:01:44;12.70;1.00
1680;DHT22;838;51.794;12.258;2023-05-10T00:04:10;12.60;1.00
1680;DHT22;838;51.794;12.258;2023-05-10T00:06:38;12.50;1.00
1680;DHT22;838;51.794;12.258;2023-05-10T00:09:04;12.40;1.00
1680;DHT22;838;51.794;12.258;2023-05-10T00:11:33;12.40;1.00
1680;DHT22;838;51.794;12.258;2023-05-10T00:13:59;12.40;1.00
1680;DHT22;838;51.794;12.258;2023-05-10T00:16:28;12.30;1.00
1680;DHT22;838;51.794;12.258;2023-05-10T00:18:54;12.30;1.00
1680;DHT22;838;51.794;12.258;2023-05-10T00:21:22;12.30;1.00
1680;DHT22;838;51.794;12.258;2023-05-10T00:23:51;12.20;1.00
1680;DHT22;838;51.794;12.258;2023-05-10T00:26:17;12.20;1.00
1680;DHT22;838;51.794;12.258;2023-05-10T00:28:46;12.10;1.00
1680;DHT22;838;51.794;12.258;2023-05-10T00:31:20;12.10;1.00
1680;DHT22;838;51.794;12.258;2023-05-10T00:33:46;12.10;1.00
1680;DHT22;838;51.794;12.258;2023-05-10T00:36:12;12.00;1.00
1680;DHT22;838;51.794;12.258;2023-05-10T00:38:44;11.90;1.00
1680;DHT22;838;51.794;12.258;2023-05-10T00:41:10;11.90;1.00
1680;DHT22;838;51.794;12.258;2023-05-10T00:43:38;11.80;1.00
1680;DHT22;838;51.794;12.258;2023-05-10T00:46:04;11.70;1.00
1680;DHT22;838;51.794;12.258;2023-05-10T00:48:31;11.60;1.00
1680;DHT22;838;51.794;12.258;2023-05-10T00:51:01;11.50;1.00
1680;DHT22;838;51.794;12.258;2023-05-10T00:53:27;11.40;1.00
1680;DHT22;838;51.794;12.258;2023-05-10T00:55:54;11.40;1.00
1680;DHT22;838;51.794;12.258;2023-05-10T00:58:21;11.30;1.00
1680;DHT22;838;51.794;12.258;2023-05-10T01:00:49;11.30;1.00
1680;DHT22;838;51.794;12.258;2023-05-10T01:03:16;11.10;1.00
1680;DHT22;838;51.794;12.258;2023-05-10T01:05:42;11.10;1.10
1680;DHT22;838;51.794;12.258;2023-05-10T01:08:08;11.10;1.40
1680;DHT22;838;51.794;12.258;2023-05-10T01:10:34;11.20;1.60
1680;DHT22;838;51.794;12.258;2023-05-10T01:13:00;11.50;1.00
1680;DHT22;838;51.794;12.258;2023-05-10T01:15:26;11.50;1.00
1680;DHT22;838;51.794;12.258;2023-05-10T01:17:52;11.50;1.00
1680;DHT22;838;51.794;12.258;2023-05-10T01:20:18;11.40;1.00
1680;DHT22;838;51.794;12.258;2023-05-10T01:23:03;11.20;1.30
1680;DHT22;838;51.794;12.258;2023-05-10T01:34:09;11.10;2.50
1680;DHT22;838;51.794;12.258;2023-05-10T01:36:56;11.00;2.80
1680;DHT22;838;51.794;12.258;2023-05-10T01:39:49;10.90;2.50
1680;DHT22;838;51.794;12.258;2023-05-10T01:42:25;10.80;4.00
1680;DHT22;838;51.794;12.258;2023-05-10T01:45:09;10.60;5.40
1680;DHT22;838;51.794;12.258;2023-05-10T01:47:43;10.50;6.40
1680;DHT22;838;51.794;12.258;2023-05-10T01:50:18;10.40;6.50
1680;DHT22;838;51.794;12.258;2023-05-10T01:52:49;10.40;7.30
1680;DHT22;838;51.794;12.258;2023-05-10T01:55:18;10.30;8.20
1680;DHT22;838;51.794;12.258;2023-05-10T01:57:48;10.20;8.60
1680;DHT22;838;51.794;12.258;2023-05-10T02:00:17;10.20;8.20
1680;DHT22;838;51.794;12.258;2023-05-10T02:02:48;10.30;8.60
1680;DHT22;838;51.794;12.258;2023-05-10T02:05:16;10.40;8.30
1680;DHT22;838;51.794;12.258;2023-05-10T02:07:43;10.60;6.60
1680;DHT22;838;51.794;12.258;2023-05-10T02:10:10;10.90;5.40
1680;DHT22;838;51.794;12.258;2023-05-10T02:12:43;11.10;4.00
1680;DHT22;838;51.794;12.258;2023-05-10T02:15:12;11.30;2.80
1680;DHT22;838;51.794;12.258;2023-05-10T02:17:42;11.20;2.70
1680;DHT22;838;51.794;12.258;2023-05-10T02:20:10;11.30;2.90
1680;DHT22;838;51.794;12.258;2023-05-10T02:22:37;11.20;2.70
1680;DHT22;838;51.794;12.258;2023-05-10T02:25:07;11.20;2.90
1680;DHT22;838;51.794;12.258;2023-05-10T02:27:37;11.10;3.50
1680;DHT22;838;51.794;12.258;2023-05-10T02:30:05;11.00;3.60
1680;DHT22;838;51.794;12.258;2023-05-10T02:32:31;11.00;3.60
1680;DHT22;838;51.794;12.258;2023-05-10T02:35:00;11.10;3.00
1680;DHT22;838;51.794;12.258;2023-05-10T02:37:27;11.30;2.30
1680;DHT22;838;51.794;12.258;2023-05-10T02:39:55;11.30;2.30
1680;DHT22;838;51.794;12.258;2023-05-10T02:42:26;11.30;1.60
1680;DHT22;838;51.794;12.258;2023-05-10T02:44:59;11.40;1.20
1680;DHT22;838;51.794;12.258;2023-05-10T02:47:25;11.30;1.00
1680;DHT22;838;51.794;12.258;2023-05-10T02:49:53;11.20;2.00
1680;DHT22;838;51.794;12.258;2023-05-10T02:52:25;10.90;3.50
1680;DHT22;838;51.794;12.258;2023-05-10T02:54:55;10.50;4.90
1680;DHT22;838;51.794;12.258;2023-05-10T02:57:26;10.10;7.40
1680;DHT22;838;51.794;12.258;2023-05-10T02:59:52;10.00;8.70
1680;DHT22;838;51.794;12.258;2023-05-10T03:02:18;9.90;11.00
1680;DHT22;838;51.794;12.258;2023-05-10T03:04:45;9.80;11.30
1680;DHT22;838;51.794;12.258;2023-05-10T03:07:11;9.80;12.00
1680;DHT22;838;51.794;12.258;2023-05-10T03:09:37;9.60;13.90
1680;DHT22;838;51.794;12.258;2023-05-10T03:12:33;9.50;14.40
1680;DHT22;838;51.794;12.258;2023-05-10T03:20:21;9.30;16.90
1680;DHT22;838;51.794;12.258;2023-05-10T03:22:51;9.20;17.70
1680;DHT22;838;51.794;12.258;2023-05-10T03:25:21;9.10;18.70
1680;DHT22;838;51.794;12.258;2023-05-10T03:27:47;9.10;19.60
1680;DHT22;838;51.794;12.258;2023-05-10T03:30:14;9.00;20.90
1680;DHT22;838;51.794;12.258;2023-05-10T03:32:40;9.00;21.00
1680;DHT22;838;51.794;12.258;2023-05-10T03:35:10;9.10;20.40
1680;DHT22;838;51.794;12.258;2023-05-10T03:37:37;9.30;19.70
1680;DHT22;838;51.794;12.258;2023-05-10T03:40:03;9.20;19.70
1680;DHT22;838;51.794;12.258;2023-05-10T03:42:29;9.10;20.90
1680;DHT22;838;51.794;12.258;2023-05-10T03:44:55;9.10;20.50
1680;DHT22;838;51.794;12.258;2023-05-10T03:47:21;9.10;20.30
1680;DHT22;838;51.794;12.258;2023-05-10T03:49:46;9.10;20.60
1680;DHT22;838;51.794;12.258;2023-05-10T03:52:12;9.10;20.90
1680;DHT22;838;51.794;12.258;2023-05-10T03:54:38;9.20;21.00
1680;DHT22;838;51.794;12.258;2023-05-10T03:57:04;9.30;20.20
1680;DHT22;838;51.794;12.258;2023-05-10T03:59:30;9.30;20.00
1680;DHT22;838;51.794;12.258;2023-05-10T04:01:56;9.30;20.20
1680;DHT22;838;51.794;12.258;2023-05-10T04:04:22;9.30;20.20
1680;DHT22;838;51.794;12.258;2023-05-10T04:06:48;9.30;21.50
1680;DHT22;838;51.794;12.258;2023-05-10T04:09:14;9.40;20.10
1680;DHT22;838;51.794;12.258;2023-05-10T04:11:40;9.50;19.40
1680;DHT22;838;51.794;12.258;2023-05-10T04:14:06;9.60;19.00
1680;DHT22;838;51.794;12.258;2023-05-10T04:16:31;9.70;18.30
1680;DHT22;838;51.794;12.258;2023-05-10T04:18:57;9.60;19.40
1680;DHT22;838;51.794;12.258;2023-05-10T04:21:23;9.60;19.50
1680;DHT22;838;51.794;12.258;2023-05-10T04:23:49;9.70;19.90
1680;DHT22;838;51.794;12.258;2023-05-10T04:26:14;9.70;20.00
1680;DHT22;838;51.794;12.258;2023-05-10T04:28:40;9.70;19.40
1680;DHT22;838;51.794;12.258;2023-05-10T04:31:08;9.80;19.30
1680;DHT22;838;51.794;12.258;2023-05-10T04:33:34;9.90;18.50
1680;DHT22;838;51.794;12.258;2023-05-10T04:36:01;9.90;18.40
1680;DHT22;838;51.794;12.258;2023-05-10T04:38:27;10.00;17.70
1680;DHT22;838;51.794;12.258;2023-05-10T04:40:54;10.10;17.70
1680;DHT22;838;51.794;12.258;2023-05-10T04:43:20;10.30;17.00
1680;DHT22;838;51.794;12.258;2023-05-10T04:45:46;10.50;15.60
1680;DHT22;838;51.794;12.258;2023-05-10T04:48:11;10.60;15.40
1680;DHT22;838;51.794;12.258;2023-05-10T04:50:39;10.80;15.10
1680;DHT22;838;51.794;12.258;2023-05-10T04:53:04;11.00;14.40
1680;DHT22;838;51.794;12.258;2023-05-10T04:55:30;11.70;11.10
1680;DHT22;838;51.794;12.258;2023-05-10T04:57:56;12.50;8.70
1680;DHT22;838;51.794;12.258;2023-05-10T05:00:23;13.10;3.80
1680;DHT22;838;51.794;12.258;2023-05-10T05:02:50;13.60;2.70
1680;DHT22;838;51.794;12.258;2023-05-10T05:05:15;14.10;1.80
1680;DHT22;838;51.794;12.258;2023-05-10T05:07:59;14.20;1.00
1680;DHT22;838;51.794;12.258;2023-05-10T05:10:25;14.50;1.00
1680;DHT22;838;51.794;12.258;2023-05-10T05:13:00;14.10;1.00
1680;DHT22;838;51.794;12.258;2023-05-10T05:15:26;14.10;1.00
1680;DHT22;838;51.794;12.258;2023-05-10T05:17:52;14.30;1.00
1680;DHT22;838;51.794;12.258;2023-05-10T05:20:18;14.60;1.00
1680;DHT22;838;51.794;12.258;2023-05-10T05:22:44;15.00;1.00
1680;DHT22;838;51.794;12.258;2023-05-10T05:25:10;15.50;1.00
1680;DHT22;838;51.794;12.258;2023-05-10T05:27:37;16.20;1.00
1680;DHT22;838;51.794;12.258;2023-05-10T05:30:03;17.10;1.00
1680;DHT22;838;51.794;12.258;2023-05-10T05:32:29;16.70;1.00
1680;DHT22;838;51.794;12.258;2023-05-10T05:34:55;17.10;1.00
1680;DHT22;838;51.794;12.258;2023-05-10T05:37:21;17.70;1.00
1680;DHT22;838;51.794;12.258;2023-05-10T05:39:48;18.20;1.00
1680;DHT22;838;51.794;12.258;2023-05-10T05:42:14;17.80;1.00
1680;DHT22;838;51.794;12.258;2023-05-10T05:44:41;17.70;1.00
1680;DHT22;838;51.794;12.258;2023-05-10T05:47:07;17.00;1.00
1680;DHT22;838;51.794;12.258;2023-05-10T05:49:33;16.60;1.00
1680;DHT22;838;51.794;12.258;2023-05-10T05:52:03;16.80;1.00
1680;DHT22;838;51.794;12.258;2023-05-10T05:54:30;16.80;1.00
1680;DHT22;838;51.794;12.258;2023-05-10T05:57:00;16.80;1.00
1680;DHT22;838;51.794;12.258;2023-05-10T05:59:26;17.20;1.00
1680;DHT22;838;51.794;12.258;2023-05-10T06:01:52;17.30;1.00
1680;DHT22;838;51.794;12.258;2023-05-10T06:04:18;17.00;1.00
1680;DHT22;838;51.794;12.258;2023-05-10T06:06:44;16.70;1.00
1680;DHT22;838;51.794;12.258;2023-05-10T06:09:10;16.90;1.00
1680;DHT22;838;51.794;12.258;2023-05-10T06:11:36;17.00;1.00
1680;DHT22;838;51.794;12.258;2023-05-10T06:14:03;17.20;1.00
1680;DHT22;838;51.794;12.258;2023-05-10T06:16:32;16.70;1.00
1680;DHT22;838;51.794;12.258;2023-05-10T06:18:58;16.70;1.00
1680;DHT22;838;51.794;12.258;2023-05-10T06:21:24;16.60;1.00
1680;DHT22;838;51.794;12.258;2023-05-10T06:23:50;16.20;1.00
1680;DHT22;838;51.794;12.258;2023-05-10T06:26:16;16.20;1.00
1680;DHT22;838;51.794;12.258;2023-05-10T06:28:41;16.20;1.00
1680;DHT22;838;51.794;12.258;2023-05-10T06:31:07;16.50;1.00
1680;DHT22;838;51.794;12.258;2023-05-10T06:33:34;16.80;1.00
1680;DHT22;838;51.794;12.258;2023-05-10T06:36:00;16.90;1.00
1680;DHT22;838;51.794;12.258;2023-05-10T06:38:25;16.80;1.00
1680;DHT22;838;51.794;12.258;2023-05-10T06:40:51;17.30;1.00
1680;DHT22;838;51.794;12.258;2023-05-10T06:43:17;17.20;1.00
1680;DHT22;838;51.794;12.258;2023-05-10T06:45:43;17.00;1.00
1680;DHT22;838;51.794;12.258;2023-05-10T06:48:12;16.80;1.00
1680;DHT22;838;51.794;12.258;2023-05-10T06:50:38;16.80;1.00
1680;DHT22;838;51.794;12.258;2023-05-10T06:53:04;17.10;1.00
1680;DHT22;838;51.794;12.258;2023-05-10T06:55:29;17.30;1.00
1680;DHT22;838;51.794;12.258;2023-05-10T06:57:55;17.50;1.00
1680;DHT22;838;51.794;12.258;2023-05-10T07:00:21;17.70;1.00
1680;DHT22;838;51.794;12.258;2023-05-10T07:02:47;17.60;1.00
1680;DHT22;838;51.794;12.258;2023-05-10T07:05:13;17.20;1.00
1680;DHT22;838;51.794;12.258;2023-05-10T07:07:39;17.40;1.00
1680;DHT22;838;51.794;12.258;2023-05-10T07:10:05;17.70;1.00
1680;DHT22;838;51.794;12.258;2023-05-10T07:12:32;17.60;1.00
1680;DHT22;838;51.794;12.258;2023-05-10T07:14:58;17.40;1.00
1680;DHT22;838;51.794;12.258;2023-05-10T07:17:24;17.80;1.00
1680;DHT22;838;51.794;12.258;2023-05-10T07:19:50;17.90;1.00
1680;DHT22;838;51.794;12.258;2023-05-10T07:22:16;18.20;1.00
1680;DHT22;838;51.794;12.258;2023-05-10T07:24:45;18.70;1.00
1680;DHT22;838;51.794;12.258;2023-05-10T07:27:11;19.90;1.00
1680;DHT22;838;51.794;12.258;2023-05-10T07:29:37;20.50;1.00
1680;DHT22;838;51.794;12.258;2023-05-10T07:32:02;19.90;1.00
1680;DHT22;838;51.794;12.258;2023-05-10T07:34:28;19.20;1.00
1680;DHT22;838;51.794;12.258;2023-05-10T07:36:57;19.00;1.00
1680;DHT22;838;51.794;12.258;2023-05-10T07:39:23;19.60;1.00
1680;DHT22;838;51.794;12.258;2023-05-10T07:41:49;20.30;1.00
1680;DHT22;838;51.794;12.258;2023-05-10T07:44:15;19.70;1.00
1680;DHT22;838;51.794;12.258;2023-05-10T07:46:43;19.50;1.00
1680;DHT22;838;51.794;12.258;2023-05-10T07:49:09;18.80;1.00
1680;DHT22;838;51.794;12.258;2023-05-10T07:51:35;18.40;1.00
1680;DHT22;838;51.794;12.258;2023-05-10T07:54:00;18.30;1.00
1680;DHT22;838;51.794;12.258;2023-05-10T07:56:30;18.10;1.00
1680;DHT22;838;51.794;12.258;2023-05-10T07:58:58;18.50;1.00
1680;DHT22;838;51.794;12.258;2023-05-10T08:01:24;19.20;1.00
1680;DHT22;838;51.794;12.258;2023-05-10T08:03:50;19.60;1.00
1680;DHT22;838;51.794;12.258;2023-05-10T08:06:17;19.40;1.00
1680;DHT22;838;51.794;12.258;2023-05-10T08:08:45;19.00;1.00
1680;DHT22;838;51.794;12.258;2023-05-10T08:11:17;18.70;1.00
1680;DHT22;838;51.794;12.258;2023-05-10T08:13:44;18.60;1.00
1680;DHT22;838;51.794;12.258;2023-05-10T08:16:10;19.00;1.00
1680;DHT22;838;51.794;12.258;2023-05-10T08:18:37;20.10;1.00
1680;DHT22;838;51.794;12.258;2023-05-10T08:21:03;19.90;1.00
1680;DHT22;838;51.794;12.258;2023-05-10T08:23:28;19.80;1.00
1680;DHT22;838;51.794;12.258;2023-05-10T08:25:54;20.50;1.00
1680;DHT22;838;51.794;12.258;2023-05-10T08:28:20;21.00;1.00
1680;DHT22;838;51.794;12.258;2023-05-10T08:30:46;21.60;1.00
1680;DHT22;838;51.794;12.258;2023-05-10T08:33:18;21.80;1.00
1680;DHT22;838;51.794;12.258;2023-05-10T08:35:44;22.50;1.00
1680;DHT22;838;51.794;12.258;2023-05-10T08:38:13;23.40;1.00
1680;DHT22;838;51.794;12.258;2023-05-10T08:40:43;24.50;1.00
1680;DHT22;838;51.794;12.258;2023-05-10T08:43:11;25.20;1.00
1680;DHT22;838;51.794;12.258;2023-05-10T08:45:44;26.80;1.00
1680;DHT22;838;51.794;12.258;2023-05-10T08:48:14;27.20;1.00
1680;DHT22;838;51.794;12.258;2023-05-10T08:50:45;27.10;1.00
1680;DHT22;838;51.794;12.258;2023-05-10T08:53:15;27.80;1.00
1680;DHT22;838;51.794;12.258;2023-05-10T08:55:42;27.90;1.00
1680;DHT22;838;51.794;12.258;2023-05-10T08:58:09;27.20;1.00
1680;DHT22;838;51.794;12.258;2023-05-10T09:00:35;26.10;1.00
1680;DHT22;838;51.794;12.258;2023-05-10T09:03:06;25.60;1.00
1680;DHT22;838;51.794;12.258;2023-05-10T09:05:36;25.60;1.00
1680;DHT22;838;51.794;12.258;2023-05-10T09:08:02;25.70;1.00
1680;DHT22;838;51.794;12.258;2023-05-10T09:10:32;25.40;1.00
1680;DHT22;838;51.794;12.258;2023-05-10T09:12:59;24.50;1.00
1680;DHT22;838;51.794;12.258;2023-05-10T09:15:25;23.80;1.00
1680;DHT22;838;51.794;12.258;2023-05-10T09:17:51;23.20;1.00
1680;DHT22;838;51.794;12.258;2023-05-10T09:20:17;23.70;1.00
1680;DHT22;838;51.794;12.258;2023-05-10T09:22:46;24.60;1.00
1680;DHT22;838;51.794;12.258;2023-05-10T09:25:15;25.10;1.00
1680;DHT22;838;51.794;12.258;2023-05-10T09:27:44;25.50;1.00
1680;DHT22;838;51.794;12.258;2023-05-10T09:30:31;26.20;1.00
1680;DHT22;838;51.794;12.258;2023-05-10T09:32:57;25.80;1.00
1680;DHT22;838;51.794;12.258;2023-05-10T09:35:26;25.80;1.00
1680;DHT22;838;51.794;12.258;2023-05-10T09:37:58;24.90;1.00
1680;DHT22;838;51.794;12.258;2023-05-10T09:40:26;23.50;1.00
1680;DHT22;838;51.794;12.258;2023-05-10T09:43:18;23.40;1.00
1680;DHT22;838;51.794;12.258;2023-05-10T09:45:48;24.30;1.00
1680;DHT22;838;51.794;12.258;2023-05-10T09:48:15;25.20;1.00
1680;DHT22;838;51.794;12.258;2023-05-10T09:50:43;25.90;1.00
1680;DHT22;838;51.794;12.258;2023-05-10T09:53:09;25.40;1.00
1680;DHT22;838;51.794;12.258;2023-05-10T09:55:44;25.20;1.00
1680;DHT22;838;51.794;12.258;2023-05-10T09:58:19;24.40;1.00
1680;DHT22;838;51.794;12.258;2023-05-10T10:00:48;23.40;1.00
1680;DHT22;838;51.794;12.258;2023-05-10T10:03:18;23.30;1.00
1680;DHT22;838;51.794;12.258;2023-05-10T10:05:48;23.20;1.00
1680;DHT22;838;51.794;12.258;2023-05-10T10:08:24;22.90;1.00
1680;DHT22;838;51.794;12.258;2023-05-10T10:10:56;22.60;1.00
1680;DHT22;838;51.794;12.258;2023-05-10T10:13:25;22.60;1.00
1680;DHT22;838;51.794;12.258;2023-05-10T10:15:52;22.70;1.00
1680;DHT22;838;51.794;12.258;2023-05-10T10:18:23;22.70;1.00
1680;DHT22;838;51.794;12.258;2023-05-10T10:21:03;22.70;1.00
1680;DHT22;838;51.794;12.258;2023-05-10T10:23:38;22.50;1.00
1680;DHT22;838;51.794;12.258;2023-05-10T10:26:10;22.20;1.00
1680;DHT22;838;51.794;12.258;2023-05-10T10:28:51;22.00;1.00
1680;DHT22;838;51.794;12.258;2023-05-10T10:31:47;21.90;1.00
1680;DHT22;838;51.794;12.258;2023-05-10T10:34:31;21.60;1.00
1680;DHT22;838;51.794;12.258;2023-05-10T10:37:05;21.40;1.00
1680;DHT22;838;51.794;12.258;2023-05-10T10:39:37;21.20;1.00
1680;DHT22;838;51.794;12.258;2023-05-10T10:42:06;21.30;1.00
1680;DHT22;838;51.794;12.258;2023-05-10T10:44:34;21.10;1.00
1680;DHT22;838;51.794;12.258;2023-05-10T11:02:52;20.20;1.00
1680;DHT22;838;51.794;12.258;2023-05-10T11:07:58;20.10;1.00
1680;DHT22;838;51.794;12.258;2023-05-10T11:10:25;20.20;1.00
1680;DHT22;838;51.794;12.258;2023-05-10T11:12:53;20.40;1.00
1680;DHT22;838;51.794;12.258;2023-05-10T11:15:20;20.10;1.00
1680;DHT22;838;51.794;12.258;2023-05-10T11:17:48;19.90;1.00
1680;DHT22;838;51.794;12.258;2023-05-10T11:20:17;19.60;1.00
1680;DHT22;838;51.794;12.258;2023-05-10T11:22:57;18.90;1.70
1680;DHT22;838;51.794;12.258;2023-05-10T11:25:28;19.00;9.50
1680;DHT22;838;51.794;12.258;2023-05-10T11:27:54;18.90;14.50
1680;DHT22;838;51.794;12.258;2023-05-10T11:30:23;18.50;18.40
1680;DHT22;838;51.794;12.258;2023-05-10T11:32:50;18.10;21.60
1680;DHT22;838;51.794;12.258;2023-05-10T11:35:16;17.80;27.30
1680;DHT22;838;51.794;12.258;2023-05-10T11:37:41;17.70;29.40
1680;DHT22;838;51.794;12.258;2023-05-10T11:40:09;17.50;32.60
1680;DHT22;838;51.794;12.258;2023-05-10T11:42:38;17.20;37.40
1680;DHT22;838;51.794;12.258;2023-05-10T11:45:05;17.20;39.80
1680;DHT22;838;51.794;12.258;2023-05-10T11:47:31;17.10;42.10
1680;DHT22;838;51.794;12.258;2023-05-10T11:49:57;17.10;43.90
1680;DHT22;838;51.794;12.258;2023-05-10T11:52:23;17.20;44.10
1680;DHT22;838;51.794;12.258;2023-05-10T11:54:58;17.30;44.20
1680;DHT22;838;51.794;12.258;2023-05-10T11:57:26;17.60;47.20
1680;DHT22;838;51.794;12.258;2023-05-10T11:59:54;17.90;43.90
1680;DHT22;838;51.794;12.258;2023-05-10T12:02:20;18.00;44.10
1680;DHT22;838;51.794;12.258;2023-05-10T12:04:55;18.20;43.90
1680;DHT22;838;51.794;12.258;2023-05-10T12:07:21;18.20;41.60
1680;DHT22;838;51.794;12.258;2023-05-10T12:10:26;18.30;41.40
1680;DHT22;838;51.794;12.258;2023-05-10T12:12:55;17.90;40.40
1680;DHT22;838;51.794;12.258;2023-05-10T12:15:25;17.80;46.00
1680;DHT22;838;51.794;12.258;2023-05-10T12:17:51;17.90;46.40
1680;DHT22;838;51.794;12.258;2023-05-10T12:20:28;18.10;46.60
1680;DHT22;838;51.794;12.258;2023-05-10T12:22:56;18.20;42.80
1680;DHT22;838;51.794;12.258;2023-05-10T12:25:23;18.40;42.90
1680;DHT22;838;51.794;12.258;2023-05-10T12:27:51;18.60;43.20
1680;DHT22;838;51.794;12.258;2023-05-10T12:30:24;18.60;38.30
1680;DHT22;838;51.794;12.258;2023-05-10T12:32:59;18.40;39.00
1680;DHT22;838;51.794;12.258;2023-05-10T12:35:25;18.40;41.40
1680;DHT22;838;51.794;12.258;2023-05-10T12:37:51;18.20;39.40
1680;DHT22;838;51.794;12.258;2023-05-10T12:40:17;18.20;46.00
1680;DHT22;838;51.794;12.258;2023-05-10T12:42:43;18.50;42.90
1680;DHT22;838;51.794;12.258;2023-05-10T12:45:12;18.60;39.10
1680;DHT22;838;51.794;12.258;2023-05-10T12:47:38;18.70;38.80
1680;DHT22;838;51.794;12.258;2023-05-10T12:50:04;18.80;38.10
1680;DHT22;838;51.794;12.258;2023-05-10T12:52:31;19.10;35.40
1680;DHT22;838;51.794;12.258;2023-05-10T12:54:58;19.40;33.30
1680;DHT22;838;51.794;12.258;2023-05-10T12:57:24;19.80;30.10
1680;DHT22;838;51.794;12.258;2023-05-10T12:59:50;19.90;30.50
1680;DHT22;838;51.794;12.258;2023-05-10T13:02:16;19.90;27.90
1680;DHT22;838;51.794;12.258;2023-05-10T13:04:47;19.90;28.50
1680;DHT22;838;51.794;12.258;2023-05-10T13:07:13;20.10;29.40
1680;DHT22;838;51.794;12.258;2023-05-10T13:09:39;20.10;28.30
1680;DHT22;838;51.794;12.258;2023-05-10T13:12:05;20.30;27.40
1680;DHT22;838;51.794;12.258;2023-05-10T13:14:31;20.20;26.40
1680;DHT22;838;51.794;12.258;2023-05-10T13:16:57;20.10;24.60
1680;DHT22;838;51.794;12.258;2023-05-10T13:19:23;19.70;26.10
1680;DHT22;838;51.794;12.258;2023-05-10T13:21:49;19.80;26.50
1680;DHT22;838;51.794;12.258;2023-05-10T13:24:15;19.80;26.40
1680;DHT22;838;51.794;12.258;2023-05-10T13:26:41;20.00;26.30
1680;DHT22;838;51.794;12.258;2023-05-10T13:29:07;19.90;25.70
1680;DHT22;838;51.794;12.258;2023-05-10T13:31:33;19.70;26.80
1680;DHT22;838;51.794;12.258;2023-05-10T13:34:00;19.60;27.40
1680;DHT22;838;51.794;12.258;2023-05-10T13:36:25;19.70;28.40
1680;DHT22;838;51.794;12.258;2023-05-10T13:38:51;19.80;27.20
1680;DHT22;838;51.794;12.258;2023-05-10T13:41:17;19.60;25.40
1680;DHT22;838;51.794;12.258;2023-05-10T13:43:43;19.40;28.30
1680;DHT22;838;51.794;12.258;2023-05-10T13:46:12;19.50;28.80
1680;DHT22;838;51.794;12.258;2023-05-10T13:48:38;19.90;28.20
1680;DHT22;838;51.794;12.258;2023-05-10T13:51:04;19.90;27.00
1680;DHT22;838;51.794;12.258;2023-05-10T13:53:32;19.80;28.50
1680;DHT22;838;51.794;12.258;2023-05-10T13:55:58;19.80;26.00
1680;DHT22;838;51.794;12.258;2023-05-10T13:58:24;19.80;26.50
1680;DHT22;838;51.794;12.258;2023-05-10T14:00:50;19.80;25.50
1680;DHT22;838;51.794;12.258;2023-05-10T14:03:15;20.00;24.90
1680;DHT22;838;51.794;12.258;2023-05-10T14:05:48;20.20;25.30
1680;DHT22;838;51.794;12.258;2023-05-10T14:08:14;20.30;25.50
1680;DHT22;838;51.794;12.258;2023-05-10T14:10:40;19.90;25.30
1680;DHT22;838;51.794;12.258;2023-05-10T14:13:06;20.00;26.50
1680;DHT22;838;51.794;12.258;2023-05-10T14:15:33;20.10;26.40
1680;DHT22;838;51.794;12.258;2023-05-10T14:18:01;20.20;24.90
1680;DHT22;838;51.794;12.258;2023-05-10T14:20:27;20.30;23.70
1680;DHT22;838;51.794;12.258;2023-05-10T14:22:53;20.20;23.80
1680;DHT22;838;51.794;12.258;2023-05-10T14:25:31;20.30;24.50
1680;DHT22;838;51.794;12.258;2023-05-10T14:27:58;20.30;23.30
1680;DHT22;838;51.794;12.258;2023-05-10T14:30:23;20.30;23.40
1680;DHT22;838;51.794;12.258;2023-05-10T14:32:49;19.90;25.60
1680;DHT22;838;51.794;12.258;2023-05-10T14:35:15;19.70;26.80
1680;DHT22;838;51.794;12.258;2023-05-10T14:37:41;19.80;26.20
1680;DHT22;838;51.794;12.258;2023-05-10T14:40:07;19.70;26.90
1680;DHT22;838;51.794;12.258;2023-05-10T14:42:34;19.50;27.10
1680;DHT22;838;51.794;12.258;2023-05-10T14:45:00;19.60;28.20
1680;DHT22;838;51.794;12.258;2023-05-10T14:47:26;19.80;27.80
1680;DHT22;838;51.794;12.258;2023-05-10T14:49:51;19.80;27.00
1680;DHT22;838;51.794;12.258;2023-05-10T14:52:17;19.60;28.10
1680;DHT22;838;51.794;12.258;2023-05-10T14:54:43;19.60;29.70
1680;DHT22;838;51.794;12.258;2023-05-10T14:57:09;19.40;29.60
1680;DHT22;838;51.794;12.258;2023-05-10T14:59:34;19.40;31.10
1680;DHT22;838;51.794;12.258;2023-05-10T15:02:00;19.40;30.80
1680;DHT22;838;51.794;12.258;2023-05-10T15:04:26;19.50;31.50
1680;DHT22;838;51.794;12.258;2023-05-10T15:06:52;19.60;30.70
1680;DHT22;838;51.794;12.258;2023-05-10T15:09:24;19.70;29.80
1680;DHT22;838;51.794;12.258;2023-05-10T15:11:50;19.80;28.70
1680;DHT22;838;51.794;12.258;2023-05-10T15:14:16;19.90;28.20
1680;DHT22;838;51.794;12.258;2023-05-10T15:16:42;20.00;28.80
1680;DHT22;838;51.794;12.258;2023-05-10T15:19:08;19.80;28.30
1680;DHT22;838;51.794;12.258;2023-05-10T15:21:34;19.70;30.10
1680;DHT22;838;51.794;12.258;2023-05-10T15:24:07;19.50;30.70
1680;DHT22;838;51.794;12.258;2023-05-10T15:26:33;19.30;34.60
1680;DHT22;838;51.794;12.258;2023-05-10T15:28:59;19.10;36.10
1680;DHT22;838;51.794;12.258;2023-05-10T15:31:25;19.10;36.50
1680;DHT22;838;51.794;12.258;2023-05-10T15:33:57;18.90;36.90
1680;DHT22;838;51.794;12.258;2023-05-10T15:36:24;18.60;38.70
1680;DHT22;838;51.794;12.258;2023-05-10T15:38:50;18.10;48.20
1680;DHT22;838;51.794;12.258;2023-05-10T15:41:16;18.00;51.10
1680;DHT22;838;51.794;12.258;2023-05-10T15:43:42;17.90;54.40
1680;DHT22;838;51.794;12.258;2023-05-10T15:46:08;17.90;53.70
1680;DHT22;838;51.794;12.258;2023-05-10T15:48:34;17.80;56.80
1680;DHT22;838;51.794;12.258;2023-05-10T15:51:00;17.80;59.60
1680;DHT22;838;51.794;12.258;2023-05-10T15:53:25;18.00;59.00
1680;DHT22;838;51.794;12.258;2023-05-10T15:55:51;18.10;57.60
1680;DHT22;838;51.794;12.258;2023-05-10T15:58:18;18.10;54.80
1680;DHT22;838;51.794;12.258;2023-05-10T16:00:44;18.20;54.20
1680;DHT22;838;51.794;12.258;2023-05-10T16:03:09;18.20;54.20
1680;DHT22;838;51.794;12.258;2023-05-10T16:05:35;18.30;55.00
1680;DHT22;838;51.794;12.258;2023-05-10T16:08:01;18.40;54.90
1680;DHT22;838;51.794;12.258;2023-05-10T16:10:30;18.50;52.50
1680;DHT22;838;51.794;12.258;2023-05-10T16:12:56;18.60;50.30
1680;DHT22;838;51.794;12.258;2023-05-10T16:15:25;18.60;48.80
1680;DHT22;838;51.794;12.258;2023-05-10T16:17:51;18.60;47.00
1680;DHT22;838;51.794;12.258;2023-05-10T16:20:17;18.50;44.60
1680;DHT22;838;51.794;12.258;2023-05-10T16:22:42;18.40;44.20
1680;DHT22;838;51.794;12.258;2023-05-10T16:25:09;18.40;47.80
1680;DHT22;838;51.794;12.258;2023-05-10T16:27:44;18.40;46.80
1680;DHT22;838;51.794;12.258;2023-05-10T16:30:11;18.40;47.20
1680;DHT22;838;51.794;12.258;2023-05-10T16:32:36;18.30;46.70
1680;DHT22;838;51.794;12.258;2023-05-10T16:35:03;18.30;48.00
1680;DHT22;838;51.794;12.258;2023-05-10T16:37:29;18.30;49.10
1680;DHT22;838;51.794;12.258;2023-05-10T16:39:54;18.00;49.40
1680;DHT22;838;51.794;12.258;2023-05-10T16:42:20;17.70;55.70
1680;DHT22;838;51.794;12.258;2023-05-10T16:44:55;17.50;58.70
1680;DHT22;838;51.794;12.258;2023-05-10T16:47:35;17.40;61.80
1680;DHT22;838;51.794;12.258;2023-05-10T16:50:06;17.40;63.40